createdAt,value
2018-01-16T00:00:40.654Z,99.99
2018-01-16T00:01:40.648Z,99.99
2018-01-16T00:02:40.400Z,99.99
2018-01-16T00:03:40.635Z,99.99
2018-01-16T00:04:40.378Z,99.99
2018-01-16T00:05:40.370Z,99.99
2018-01-16T00:06:40.617Z,99.99
2018-01-16T00:07:40.610Z,99.99
2018-01-16T00:08:40.599Z,99.99
2018-01-16T00:09:40.350Z,99.99
2018-01-16T00:10:40.592Z,99.99
2018-01-16T00:11:40.584Z,99.99
2018-01-16T00:12:40.574Z,99.99
2018-01-16T00:13:40.315Z,99.99
2018-01-16T00:14:40.563Z,99.99
2018-01-16T00:15:40.307Z,99.99
2018-01-16T00:16:40.996Z,99.99
2018-01-16T00:17:40.540Z,99.99
2018-01-16T00:18:40.543Z,99.99
2018-01-16T00:19:40.519Z,99.99
2018-01-16T00:20:40.268Z,99.99
2018-01-16T00:21:40.263Z,99.99
2018-01-16T00:22:40.561Z,99.99
2018-01-16T00:23:40.516Z,99.99
2018-01-16T00:24:40.243Z,99.99
2018-01-16T00:25:40.487Z,99.99
2018-01-16T00:26:40.481Z,99.99
2018-01-16T00:27:40.475Z,99.99
2018-01-16T00:28:40.465Z,99.99
2018-01-16T00:29:40.213Z,99.99
2018-01-16T00:30:40.202Z,99.99
2018-01-16T00:31:40.449Z,99.99
2018-01-16T00:32:40.475Z,99.99
2018-01-16T00:33:40.440Z,99.99
2018-01-16T00:34:40.433Z,99.99
2018-01-16T00:35:40.426Z,99.99
2018-01-16T00:36:40.428Z,99.99
2018-01-16T00:37:40.159Z,99.99
2018-01-16T00:38:40.153Z,99.99
2018-01-16T00:39:40.394Z,99.99
2018-01-16T00:40:40.387Z,99.99
2018-01-16T00:41:40.385Z,99.99
2018-01-16T00:42:40.382Z,99.99
2018-01-16T00:43:40.122Z,99.99
2018-01-16T00:44:40.368Z,99.99
2018-01-16T00:45:40.368Z,99.99
2018-01-16T00:46:43.804Z,99.99
2018-01-16T00:47:40.346Z,99.99
2018-01-16T00:48:40.337Z,99.99
2018-01-16T00:49:40.079Z,99.99
2018-01-16T00:50:40.072Z,99.99
2018-01-16T00:51:40.317Z,99.99
2018-01-16T00:52:40.312Z,99.99
2018-01-16T00:53:40.314Z,99.99
2018-01-16T00:54:40.328Z,99.99
2018-01-16T00:55:40.307Z,99.99
2018-01-16T00:56:40.046Z,99.99
2018-01-16T00:57:40.031Z,99.99
2018-01-16T00:58:40.307Z,99.99
2018-01-16T00:59:40.026Z,99.99
2018-01-16T01:00:40.267Z,99.99
2018-01-16T01:01:40.001Z,99.99
2018-01-16T01:02:39.993Z,99.99
2018-01-16T01:03:39.986Z,99.99
2018-01-16T01:04:39.979Z,99.99
2018-01-16T01:05:39.976Z,99.99
2018-01-16T01:06:40.221Z,99.99
2018-01-16T01:07:40.215Z,99.99
2018-01-16T01:08:40.218Z,99.99
2018-01-16T01:09:40.212Z,99.99
2018-01-16T01:10:39.943Z,99.99
2018-01-16T01:11:39.939Z,99.99
2018-01-16T01:12:39.934Z,99.99
2018-01-16T01:13:39.929Z,99.99
2018-01-16T01:14:39.920Z,99.99
2018-01-16T01:15:39.913Z,99.99
2018-01-16T01:16:39.906Z,99.99
2018-01-16T01:17:40.402Z,99.99
2018-01-16T01:18:39.896Z,99.99
2018-01-16T01:19:40.150Z,99.99
2018-01-16T01:20:40.135Z,99.99
2018-01-16T01:21:39.878Z,99.99
2018-01-16T01:22:39.895Z,99.99
2018-01-16T01:23:40.111Z,99.99
2018-01-16T01:24:40.105Z,99.99
2018-01-16T01:25:39.846Z,99.99
2018-01-16T01:26:39.842Z,99.99
2018-01-16T01:27:40.152Z,99.99
2018-01-16T01:28:40.093Z,99.99
2018-01-16T01:29:40.073Z,99.99
2018-01-16T01:30:39.823Z,99.99
2018-01-16T01:31:40.063Z,99.99
2018-01-16T01:32:42.509Z,99.99
2018-01-16T01:33:39.799Z,99.99
2018-01-16T01:34:40.044Z,99.99
2018-01-16T01:35:40.034Z,99.99
2018-01-16T01:36:40.032Z,99.99
2018-01-16T01:37:40.026Z,99.99
2018-01-16T01:38:40.070Z,99.99
2018-01-16T01:39:39.767Z,99.99
2018-01-16T01:40:40.005Z,99.99
2018-01-16T01:41:39.998Z,99.99
2018-01-16T01:42:39.742Z,99.99
2018-01-16T01:43:39.745Z,99.99
2018-01-16T01:44:39.987Z,99.99
2018-01-16T01:45:40.015Z,99.99
2018-01-16T01:46:39.970Z,99.99
2018-01-16T01:47:39.710Z,99.99
2018-01-16T01:48:39.957Z,99.99
2018-01-16T01:49:39.708Z,99.99
2018-01-16T01:50:39.942Z,99.99
2018-01-16T01:51:39.935Z,99.99
2018-01-16T01:52:39.933Z,99.99
2018-01-16T01:53:39.925Z,99.99
2018-01-16T01:54:39.669Z,99.99
2018-01-16T01:55:39.913Z,99.99
2018-01-16T01:56:39.904Z,99.99
2018-01-16T01:57:39.649Z,99.99
2018-01-16T01:58:39.640Z,99.99
2018-01-16T01:59:39.639Z,99.99
2018-01-16T02:00:39.882Z,99.99
2018-01-16T02:01:39.873Z,99.99
2018-01-16T02:02:39.869Z,99.99
2018-01-16T02:03:39.613Z,99.99
2018-01-16T02:04:39.609Z,99.99
2018-01-16T02:05:39.599Z,99.99
2018-01-16T02:06:39.590Z,99.99
2018-01-16T02:07:39.589Z,99.99
2018-01-16T02:08:39.584Z,99.99
2018-01-16T02:09:39.847Z,99.99
2018-01-16T02:10:39.843Z,99.99
2018-01-16T02:11:39.816Z,99.99
2018-01-16T02:12:39.805Z,99.99
2018-01-16T02:13:39.799Z,99.99
2018-01-16T02:14:39.546Z,99.99
2018-01-16T02:15:39.536Z,99.99
2018-01-16T02:16:39.788Z,99.99
2018-01-16T02:17:39.790Z,99.99
2018-01-16T02:18:40.323Z,99.99
2018-01-16T02:19:39.791Z,99.99
2018-01-16T02:20:39.761Z,99.99
2018-01-16T02:21:39.501Z,99.99
2018-01-16T02:22:39.496Z,99.99
2018-01-16T02:23:39.741Z,99.99
2018-01-16T02:24:39.751Z,99.99
2018-01-16T02:25:39.731Z,99.99
2018-01-16T02:26:39.726Z,99.99
2018-01-16T02:27:39.737Z,99.99
2018-01-16T02:28:39.463Z,99.99
2018-01-16T02:29:39.714Z,99.99
2018-01-16T02:30:39.707Z,99.99
2018-01-16T02:31:39.716Z,99.99
2018-01-16T02:32:39.696Z,99.99
2018-01-16T02:33:41.552Z,99.99
2018-01-16T02:34:39.695Z,99.99
2018-01-16T02:35:39.671Z,99.99
2018-01-16T02:36:39.672Z,99.99
2018-01-16T02:37:39.664Z,99.99
2018-01-16T02:38:39.399Z,99.99
2018-01-16T02:39:39.649Z,99.99
2018-01-16T02:40:39.644Z,99.99
2018-01-16T02:41:39.634Z,99.99
2018-01-16T02:42:39.636Z,99.99
2018-01-16T02:43:39.642Z,99.99
2018-01-16T02:44:39.374Z,99.99
2018-01-16T02:45:39.612Z,99.99
2018-01-16T02:46:39.685Z,99.99
2018-01-16T02:47:39.356Z,99.99
2018-01-16T02:48:39.906Z,99.99
2018-01-16T02:49:39.594Z,99.99
2018-01-16T02:50:39.586Z,99.99
2018-01-16T02:51:39.578Z,99.99
2018-01-16T02:52:39.319Z,99.99
2018-01-16T02:53:39.566Z,99.99
2018-01-16T02:54:39.562Z,99.99
2018-01-16T02:55:39.555Z,99.99
2018-01-16T02:56:39.548Z,99.99
2018-01-16T02:57:39.541Z,99.99
2018-01-16T02:58:39.542Z,99.99
2018-01-16T02:59:39.535Z,99.99
2018-01-16T03:00:39.524Z,99.99
2018-01-16T03:01:39.519Z,99.99
2018-01-16T03:02:39.513Z,99.99
2018-01-16T03:03:39.517Z,99.99
2018-01-16T03:04:39.505Z,99.99
2018-01-16T03:05:39.503Z,99.99
2018-01-16T03:06:39.501Z,99.99
2018-01-16T03:07:39.497Z,99.99
2018-01-16T03:08:39.477Z,99.99
2018-01-16T03:09:39.471Z,99.99
2018-01-16T03:10:39.469Z,99.99
2018-01-16T03:11:39.465Z,99.99
2018-01-16T03:12:39.468Z,99.99
2018-01-16T03:13:39.454Z,99.99
2018-01-16T03:14:39.446Z,99.99
2018-01-16T03:15:39.445Z,99.99
2018-01-16T03:16:39.430Z,99.99
2018-01-16T03:17:39.424Z,99.99
2018-01-16T03:18:42.923Z,99.99
2018-01-16T03:19:39.414Z,99.99
2018-01-16T03:20:39.415Z,99.99
2018-01-16T03:21:39.402Z,99.99
2018-01-16T03:22:39.450Z,99.99
2018-01-16T03:23:39.389Z,99.99
2018-01-16T03:24:39.397Z,99.99
2018-01-16T03:25:39.381Z,99.99
2018-01-16T03:26:39.374Z,99.99
2018-01-16T03:27:39.114Z,99.99
2018-01-16T03:28:39.363Z,99.99
2018-01-16T03:29:39.353Z,99.99
2018-01-16T03:30:39.347Z,99.99
2018-01-16T03:31:39.343Z,99.99
2018-01-16T03:32:39.336Z,99.99
2018-01-16T03:33:39.329Z,99.99
2018-01-16T03:34:39.326Z,99.99
2018-01-16T03:35:39.065Z,99.99
2018-01-16T03:36:39.071Z,99.99
2018-01-16T03:37:39.056Z,99.99
2018-01-16T03:38:39.305Z,99.99
2018-01-16T03:39:39.292Z,99.99
2018-01-16T03:40:39.285Z,99.99
2018-01-16T03:41:39.285Z,99.99
2018-01-16T03:42:39.024Z,99.99
2018-01-16T03:43:39.279Z,99.99
2018-01-16T03:44:39.263Z,99.99
2018-01-16T03:45:39.256Z,99.99
2018-01-16T03:46:39.253Z,99.99
2018-01-16T03:47:39.255Z,99.99
2018-01-16T03:48:38.985Z,99.99
2018-01-16T03:49:38.980Z,99.99
2018-01-16T03:50:39.242Z,99.99
2018-01-16T03:51:38.969Z,99.99
2018-01-16T03:52:38.963Z,99.99
2018-01-16T03:53:39.207Z,99.99
2018-01-16T03:54:39.205Z,99.99
2018-01-16T03:55:39.198Z,99.99
2018-01-16T03:56:39.197Z,99.99
2018-01-16T03:57:39.191Z,99.99
2018-01-16T03:58:39.179Z,99.99
2018-01-16T03:59:39.182Z,99.99
2018-01-16T04:00:39.172Z,99.99
2018-01-16T04:01:39.178Z,99.99
2018-01-16T04:02:39.182Z,99.99
2018-01-16T04:03:38.899Z,99.99
2018-01-16T04:04:38.890Z,99.99
2018-01-16T04:05:39.141Z,99.99
2018-01-16T04:06:38.877Z,99.99
2018-01-16T04:07:39.124Z,99.99
2018-01-16T04:08:39.124Z,99.99
2018-01-16T04:09:38.861Z,99.99
2018-01-16T04:10:39.122Z,99.99
2018-01-16T04:11:38.844Z,99.99
2018-01-16T04:12:38.843Z,99.99
2018-01-16T04:13:39.086Z,99.99
2018-01-16T04:14:38.826Z,99.99
2018-01-16T04:15:38.844Z,99.99
2018-01-16T04:16:38.824Z,99.99
2018-01-16T04:17:38.806Z,99.99
2018-01-16T04:18:38.800Z,99.99
2018-01-16T04:19:38.797Z,99.99
2018-01-16T04:20:39.039Z,99.99
2018-01-16T04:21:39.031Z,99.99
2018-01-16T04:22:39.028Z,99.99
2018-01-16T04:23:39.022Z,99.99
2018-01-16T04:24:39.016Z,99.99
2018-01-16T04:25:39.010Z,99.99
2018-01-16T04:26:39.000Z,99.99
2018-01-16T04:27:38.742Z,99.99
2018-01-16T04:28:38.987Z,99.99
2018-01-16T04:29:38.979Z,99.99
2018-01-16T04:30:38.975Z,99.99
2018-01-16T04:31:38.967Z,99.99
2018-01-16T04:32:38.961Z,99.99
2018-01-16T04:33:38.953Z,99.99
2018-01-16T04:34:38.946Z,99.99
2018-01-16T04:35:38.698Z,99.99
2018-01-16T04:36:38.689Z,99.99
2018-01-16T04:37:38.926Z,99.99
2018-01-16T04:38:38.917Z,99.99
2018-01-16T04:39:38.915Z,99.99
2018-01-16T04:40:38.670Z,99.99
2018-01-16T04:41:38.908Z,99.99
2018-01-16T04:42:38.902Z,99.99
2018-01-16T04:43:38.648Z,99.99
2018-01-16T04:44:38.881Z,99.99
2018-01-16T04:45:38.874Z,99.99
2018-01-16T04:46:38.869Z,99.99
2018-01-16T04:47:38.864Z,99.99
2018-01-16T04:48:38.609Z,99.99
2018-01-16T04:49:39.150Z,99.99
2018-01-16T04:50:38.845Z,99.99
2018-01-16T04:51:38.842Z,99.99
2018-01-16T04:52:38.846Z,99.99
2018-01-16T04:53:38.821Z,99.99
2018-01-16T04:54:38.578Z,99.99
2018-01-16T04:55:38.834Z,99.99
2018-01-16T04:56:38.808Z,99.99
2018-01-16T04:57:38.810Z,99.99
2018-01-16T04:58:38.788Z,99.99
2018-01-16T04:59:38.802Z,99.99
2018-01-16T05:00:38.527Z,99.99
2018-01-16T05:01:38.773Z,99.99
2018-01-16T05:02:38.772Z,99.99
2018-01-16T05:03:38.778Z,99.99
2018-01-16T05:04:38.526Z,99.99
2018-01-16T05:05:38.761Z,99.99
2018-01-16T05:06:38.493Z,99.99
2018-01-16T05:07:38.747Z,99.99
2018-01-16T05:08:38.748Z,99.99
2018-01-16T05:09:38.735Z,99.99
2018-01-16T05:10:38.726Z,99.99
2018-01-16T05:11:38.476Z,99.99
2018-01-16T05:12:38.455Z,99.99
2018-01-16T05:13:38.707Z,99.99
2018-01-16T05:14:38.446Z,99.99
2018-01-16T05:15:38.438Z,99.99
2018-01-16T05:16:38.438Z,99.99
2018-01-16T05:17:38.426Z,99.99
2018-01-16T05:18:38.679Z,99.99
2018-01-16T05:19:40.716Z,99.99
2018-01-16T05:20:38.668Z,99.99
2018-01-16T05:21:38.400Z,99.99
2018-01-16T05:22:38.394Z,99.99
2018-01-16T05:23:38.646Z,99.99
2018-01-16T05:24:38.381Z,99.99
2018-01-16T05:25:38.398Z,99.99
2018-01-16T05:26:38.373Z,99.99
2018-01-16T05:27:38.658Z,99.99
2018-01-16T05:28:38.609Z,99.99
2018-01-16T05:29:38.603Z,99.99
2018-01-16T05:30:38.351Z,99.99
2018-01-16T05:31:38.592Z,99.99
2018-01-16T05:32:38.339Z,99.99
2018-01-16T05:33:38.330Z,99.99
2018-01-16T05:34:38.570Z,99.99
2018-01-16T05:35:38.564Z,99.99
2018-01-16T05:36:38.590Z,99.99
2018-01-16T05:37:38.304Z,99.99
2018-01-16T05:38:38.293Z,99.99
2018-01-16T05:39:38.288Z,99.99
2018-01-16T05:40:38.536Z,99.99
2018-01-16T05:41:38.531Z,99.99
2018-01-16T05:42:38.530Z,99.99
2018-01-16T05:43:38.513Z,99.99
2018-01-16T05:44:38.514Z,99.99
2018-01-16T05:45:38.508Z,99.99
2018-01-16T05:46:38.501Z,99.99
2018-01-16T05:47:38.495Z,99.99
2018-01-16T05:48:38.499Z,99.99
2018-01-16T05:49:39.325Z,99.99
2018-01-16T05:50:38.220Z,99.99
2018-01-16T05:51:38.219Z,99.99
2018-01-16T05:52:38.460Z,99.99
2018-01-16T05:53:38.457Z,99.99
2018-01-16T05:54:38.195Z,99.99
2018-01-16T05:55:38.186Z,99.99
2018-01-16T05:56:38.436Z,99.99
2018-01-16T05:57:38.176Z,99.99
2018-01-16T05:58:38.172Z,99.99
2018-01-16T05:59:38.167Z,99.99
2018-01-16T06:00:38.159Z,99.99
2018-01-16T06:01:38.434Z,99.99
2018-01-16T06:02:38.405Z,99.99
2018-01-16T06:03:38.391Z,99.99
2018-01-16T06:04:38.388Z,99.99
2018-01-16T06:05:38.381Z,99.99
2018-01-16T06:06:38.376Z,99.99
2018-01-16T06:07:38.365Z,99.99
2018-01-16T06:08:38.360Z,99.99
2018-01-16T06:09:38.356Z,99.99
2018-01-16T06:10:38.348Z,99.99
2018-01-16T06:11:38.348Z,99.99
2018-01-16T06:12:38.087Z,99.99
2018-01-16T06:13:38.334Z,99.99
2018-01-16T06:14:38.083Z,99.99
2018-01-16T06:15:38.069Z,99.99
2018-01-16T06:16:38.316Z,99.99
2018-01-16T06:17:38.305Z,99.99
2018-01-16T06:18:38.300Z,99.99
2018-01-16T06:19:38.294Z,99.99
2018-01-16T06:20:38.292Z,99.99
2018-01-16T06:21:38.300Z,99.99
2018-01-16T06:22:38.279Z,99.99
2018-01-16T06:23:38.273Z,99.99
2018-01-16T06:24:38.265Z,99.99
2018-01-16T06:25:38.069Z,99.99
2018-01-16T06:26:38.010Z,99.99
2018-01-16T06:27:38.249Z,99.99
2018-01-16T06:28:38.249Z,99.99
2018-01-16T06:29:38.232Z,99.99
2018-01-16T06:30:37.984Z,99.99
2018-01-16T06:31:37.986Z,99.99
2018-01-16T06:32:38.217Z,99.99
2018-01-16T06:33:37.967Z,99.99
2018-01-16T06:34:38.208Z,99.99
2018-01-16T06:35:39.266Z,99.99
2018-01-16T06:36:37.950Z,99.99
2018-01-16T06:37:37.938Z,99.99
2018-01-16T06:38:37.931Z,99.99
2018-01-16T06:39:38.174Z,99.99
2018-01-16T06:40:37.917Z,99.99
2018-01-16T06:41:38.185Z,99.99
2018-01-16T06:42:38.166Z,99.99
2018-01-16T06:43:37.907Z,99.99
2018-01-16T06:44:38.158Z,99.99
2018-01-16T06:45:38.141Z,99.99
2018-01-16T06:46:37.889Z,99.99
2018-01-16T06:47:38.191Z,99.99
2018-01-16T06:48:38.128Z,99.99
2018-01-16T06:49:37.865Z,99.99
2018-01-16T06:50:39.218Z,99.99
2018-01-16T06:51:38.126Z,99.99
2018-01-16T06:52:38.107Z,99.99
2018-01-16T06:53:38.091Z,99.99
2018-01-16T06:54:37.835Z,99.99
2018-01-16T06:55:38.078Z,99.99
2018-01-16T06:56:38.076Z,99.99
2018-01-16T06:57:37.814Z,99.99
2018-01-16T06:58:38.069Z,99.99
2018-01-16T06:59:38.073Z,99.99
2018-01-16T07:00:38.066Z,99.99
2018-01-16T07:01:38.074Z,99.99
2018-01-16T07:02:38.034Z,99.99
2018-01-16T07:03:38.031Z,99.99
2018-01-16T07:04:37.768Z,99.99
2018-01-16T07:05:37.770Z,99.99
2018-01-16T07:06:38.019Z,99.99
2018-01-16T07:07:37.759Z,99.99
2018-01-16T07:08:38.003Z,99.99
2018-01-16T07:09:38.001Z,99.99
2018-01-16T07:10:37.987Z,99.99
2018-01-16T07:11:38.071Z,99.99
2018-01-16T07:12:37.723Z,99.99
2018-01-16T07:13:37.717Z,99.99
2018-01-16T07:14:38.008Z,99.99
2018-01-16T07:15:37.709Z,99.99
2018-01-16T07:16:37.955Z,99.99
2018-01-16T07:17:37.945Z,99.99
2018-01-16T07:18:37.953Z,99.99
2018-01-16T07:19:37.953Z,99.99
2018-01-16T07:20:37.923Z,99.99
2018-01-16T07:21:37.922Z,99.99
2018-01-16T07:22:37.921Z,99.99
2018-01-16T07:23:37.909Z,99.99
2018-01-16T07:24:37.659Z,99.99
2018-01-16T07:25:37.657Z,99.99
2018-01-16T07:26:37.647Z,99.99
2018-01-16T07:27:37.881Z,99.99
2018-01-16T07:28:37.632Z,99.99
2018-01-16T07:29:37.619Z,99.99
2018-01-16T07:30:37.866Z,99.99
2018-01-16T07:31:37.875Z,99.99
2018-01-16T07:32:37.857Z,99.99
2018-01-16T07:33:37.599Z,99.99
2018-01-16T07:34:37.593Z,99.99
2018-01-16T07:35:37.596Z,99.99
2018-01-16T07:36:37.591Z,99.99
2018-01-16T07:37:37.845Z,99.99
2018-01-16T07:38:37.568Z,99.99
2018-01-16T07:39:37.563Z,99.99
2018-01-16T07:40:37.813Z,99.99
2018-01-16T07:41:37.570Z,99.99
2018-01-16T07:42:37.802Z,99.99
2018-01-16T07:43:37.804Z,99.99
2018-01-16T07:44:37.569Z,99.99
2018-01-16T07:45:37.798Z,99.99
2018-01-16T07:46:37.801Z,99.99
2018-01-16T07:47:37.517Z,99.99
2018-01-16T07:48:37.514Z,99.99
2018-01-16T07:49:37.757Z,99.99
2018-01-16T07:50:37.752Z,99.99
2018-01-16T07:51:38.328Z,99.99
2018-01-16T07:52:37.749Z,99.99
2018-01-16T07:53:37.747Z,99.99
2018-01-16T07:54:37.729Z,99.99
2018-01-16T07:55:37.726Z,99.99
2018-01-16T07:56:37.739Z,99.99
2018-01-16T07:57:37.729Z,99.99
2018-01-16T07:58:37.703Z,99.99
2018-01-16T07:59:37.699Z,99.99
2018-01-16T08:00:37.444Z,99.99
2018-01-16T08:01:37.442Z,99.99
2018-01-16T08:02:37.684Z,99.99
2018-01-16T08:03:37.677Z,99.99
2018-01-16T08:04:37.423Z,99.99
2018-01-16T08:05:37.672Z,99.99
2018-01-16T08:06:37.673Z,99.99
2018-01-16T08:07:37.676Z,99.99
2018-01-16T08:08:37.651Z,99.99
2018-01-16T08:09:37.646Z,99.99
2018-01-16T08:10:37.642Z,99.99
2018-01-16T08:11:37.653Z,99.99
2018-01-16T08:12:37.631Z,99.99
2018-01-16T08:13:37.653Z,99.99
2018-01-16T08:14:37.371Z,99.99
2018-01-16T08:15:37.621Z,99.99
2018-01-16T08:16:37.624Z,99.99
2018-01-16T08:17:37.599Z,99.99
2018-01-16T08:18:37.596Z,99.99
2018-01-16T08:19:37.334Z,99.99
2018-01-16T08:20:37.588Z,99.99
2018-01-16T08:21:37.581Z,99.99
2018-01-16T08:22:37.354Z,99.99
2018-01-16T08:23:37.319Z,99.99
2018-01-16T08:24:37.560Z,99.99
2018-01-16T08:25:37.306Z,99.99
2018-01-16T08:26:37.305Z,99.99
2018-01-16T08:27:37.290Z,99.99
2018-01-16T08:28:37.289Z,99.99
2018-01-16T08:29:37.528Z,99.99
2018-01-16T08:30:37.526Z,99.99
2018-01-16T08:31:37.516Z,99.99
2018-01-16T08:32:37.518Z,99.99
2018-01-16T08:33:37.503Z,99.99
2018-01-16T08:34:37.251Z,99.99
2018-01-16T08:35:37.490Z,99.99
2018-01-16T08:36:37.536Z,99.99
2018-01-16T08:37:37.230Z,99.99
2018-01-16T08:38:37.486Z,99.99
2018-01-16T08:39:37.475Z,99.99
2018-01-16T08:40:37.464Z,99.99
2018-01-16T08:41:37.458Z,99.99
2018-01-16T08:42:37.452Z,99.99
2018-01-16T08:43:37.454Z,99.99
2018-01-16T08:44:37.442Z,99.99
2018-01-16T08:45:37.437Z,99.99
2018-01-16T08:46:38.233Z,99.99
2018-01-16T08:47:37.423Z,99.99
2018-01-16T08:48:37.419Z,99.99
2018-01-16T08:49:37.419Z,99.99
2018-01-16T08:50:37.408Z,99.99
2018-01-16T08:51:37.453Z,99.99
2018-01-16T08:52:37.398Z,99.99
2018-01-16T08:53:37.396Z,99.99
2018-01-16T08:54:37.385Z,99.99
2018-01-16T08:55:37.130Z,99.99
2018-01-16T08:56:37.381Z,99.99
2018-01-16T08:57:37.373Z,99.99
2018-01-16T08:58:37.383Z,99.99
2018-01-16T08:59:37.117Z,99.99
2018-01-16T09:00:37.355Z,99.99
2018-01-16T09:01:37.352Z,99.99
2018-01-16T09:02:37.105Z,99.99
2018-01-16T09:03:37.340Z,99.99
2018-01-16T09:04:37.083Z,99.99
2018-01-16T09:05:37.328Z,99.99
2018-01-16T09:06:37.076Z,99.99
2018-01-16T09:07:37.318Z,99.99
2018-01-16T09:08:37.083Z,99.99
2018-01-16T09:09:37.307Z,99.99
2018-01-16T09:10:37.304Z,99.99
2018-01-16T09:11:37.300Z,99.99
2018-01-16T09:12:37.296Z,99.99
2018-01-16T09:13:37.289Z,99.99
2018-01-16T09:14:37.031Z,99.99
2018-01-16T09:15:37.278Z,99.99
2018-01-16T09:16:37.273Z,99.99
2018-01-16T09:17:37.276Z,99.99
2018-01-16T09:18:37.263Z,99.99
2018-01-16T09:19:37.009Z,99.99
2018-01-16T09:20:37.260Z,99.99
2018-01-16T09:21:37.252Z,99.99
2018-01-16T09:22:37.244Z,99.99
2018-01-16T09:23:36.993Z,99.99
2018-01-16T09:24:36.985Z,99.99
2018-01-16T09:25:37.233Z,99.99
2018-01-16T09:26:37.226Z,99.99
2018-01-16T09:27:36.972Z,99.99
2018-01-16T09:28:37.218Z,99.99
2018-01-16T09:29:37.023Z,99.99
2018-01-16T09:30:37.217Z,99.99
2018-01-16T09:31:37.203Z,99.99
2018-01-16T09:32:37.211Z,99.99
2018-01-16T09:33:37.209Z,99.99
2018-01-16T09:34:37.191Z,99.99
2018-01-16T09:35:37.256Z,99.99
2018-01-16T09:36:37.178Z,99.99
2018-01-16T09:37:37.173Z,99.99
2018-01-16T09:38:37.172Z,99.99
2018-01-16T09:39:37.166Z,99.99
2018-01-16T09:40:37.157Z,99.99
2018-01-16T09:41:36.913Z,99.99
2018-01-16T09:42:37.154Z,99.99
2018-01-16T09:43:37.157Z,99.99
2018-01-16T09:44:36.898Z,98.97
2018-01-16T09:45:37.133Z,99.99
2018-01-16T09:46:37.129Z,99.22
2018-01-16T09:47:37.926Z,98.83
2018-01-16T09:48:37.125Z,99.5
2018-01-16T09:49:36.892Z,97.88
2018-01-16T09:50:36.888Z,98.46
2018-01-16T09:51:36.863Z,97.69
2018-01-16T09:52:37.803Z,98.46
2018-01-16T09:53:37.107Z,98.46
2018-01-16T09:54:37.112Z,98.46
2018-01-16T09:55:36.867Z,97.69
2018-01-16T09:56:37.081Z,97.5
2018-01-16T09:57:37.076Z,97.13
2018-01-16T09:58:37.073Z,97.88
2018-01-16T09:59:37.072Z,97.88
2018-01-16T10:00:37.067Z,97.65
2018-01-16T10:01:37.063Z,99.17
2018-01-16T10:02:37.068Z,98.98
2018-01-16T10:03:36.812Z,98.5
2018-01-16T10:04:37.047Z,98.5
2018-01-16T10:05:36.803Z,97.27
2018-01-16T10:06:37.046Z,96.41
2018-01-16T10:07:37.063Z,96.12
2018-01-16T10:08:36.780Z,95.17
2018-01-16T10:09:37.035Z,94.89
2018-01-16T10:10:37.027Z,95.17
2018-01-16T10:11:37.022Z,96.31
2018-01-16T10:12:37.023Z,96.6
2018-01-16T10:13:37.012Z,96.98
2018-01-16T10:14:36.768Z,96.03
2018-01-16T10:15:37.003Z,96.89
2018-01-16T10:16:36.747Z,96.98
2018-01-16T10:17:37.004Z,97.08
2018-01-16T10:18:37.789Z,96.79
2018-01-16T10:19:36.991Z,96.98
2018-01-16T10:20:36.989Z,98.13
2018-01-16T10:21:36.994Z,98.22
2018-01-16T10:22:36.982Z,97.74
2018-01-16T10:53:05.780Z,99.99
2018-01-16T10:54:05.769Z,99.99
2018-01-16T10:55:05.762Z,99.99
2018-01-16T10:56:05.998Z,99.99
2018-01-16T10:57:05.985Z,99.99
2018-01-16T10:58:05.980Z,99.99
2018-01-16T10:59:05.722Z,99.99
2018-01-16T11:00:05.965Z,99.99
2018-01-16T11:01:05.698Z,99.99
2018-01-16T11:02:05.962Z,99.99
2018-01-16T11:03:05.968Z,99.99
2018-01-16T11:04:05.675Z,99.99
2018-01-16T11:05:05.922Z,99.99
2018-01-16T11:06:05.935Z,99.99
2018-01-16T11:07:05.912Z,99.99
2018-01-16T11:08:08.511Z,99.99
2018-01-16T11:09:05.909Z,99.99
2018-01-16T11:10:05.640Z,99.99
2018-01-16T11:11:05.905Z,99.99
2018-01-16T11:12:05.892Z,99.99
2018-01-16T11:13:05.892Z,99.99
2018-01-16T11:14:05.873Z,99.99
2018-01-16T11:15:05.881Z,99.99
2018-01-16T11:16:05.869Z,99.99
2018-01-16T11:17:05.869Z,99.99
2018-01-16T11:18:05.861Z,99.99
2018-01-16T11:19:05.851Z,99.99
2018-01-16T11:20:05.587Z,99.99
2018-01-16T11:21:05.581Z,99.99
2018-01-16T11:22:05.842Z,99.99
2018-01-16T11:23:05.570Z,99.99
2018-01-16T11:24:05.583Z,99.99
2018-01-16T11:25:05.846Z,99.99
2018-01-16T11:26:05.820Z,99.99
2018-01-16T11:27:05.838Z,99.99
2018-01-16T11:28:05.812Z,99.99
2018-01-16T11:29:05.820Z,99.99
2018-01-16T11:30:05.539Z,99.99
2018-01-16T11:31:05.536Z,99.99
2018-01-16T11:32:05.793Z,99.99
2018-01-16T11:33:05.777Z,99.99
2018-01-16T11:34:05.815Z,99.99
2018-01-16T11:35:05.525Z,99.99
2018-01-16T11:36:05.776Z,99.99
2018-01-16T11:37:05.773Z,99.99
2018-01-16T11:38:05.759Z,99.99
2018-01-16T11:39:05.760Z,99.99
2018-01-16T11:40:05.495Z,99.99
2018-01-16T11:41:05.761Z,99.99
2018-01-16T11:42:05.738Z,99.99
2018-01-16T11:43:05.499Z,99.99
2018-01-16T11:44:05.477Z,99.99
2018-01-16T11:45:05.478Z,99.99
2018-01-16T11:46:05.721Z,99.99
2018-01-16T11:47:05.468Z,99.99
2018-01-16T11:48:05.709Z,99.99
2018-01-16T11:49:05.469Z,99.99
2018-01-16T11:50:05.717Z,99.99
2018-01-16T11:51:05.442Z,99.99
2018-01-16T11:52:05.689Z,99.99
2018-01-16T11:53:05.703Z,99.99
2018-01-16T11:54:05.701Z,99.99
2018-01-16T11:55:05.679Z,99.99
2018-01-16T11:56:05.420Z,99.99
2018-01-16T11:57:05.411Z,99.99
2018-01-16T11:58:05.657Z,99.99
2018-01-16T11:59:05.656Z,99.99
2018-01-16T12:00:05.649Z,99.99
2018-01-16T12:01:05.643Z,99.99
2018-01-16T12:02:05.646Z,99.99
2018-01-16T12:03:05.393Z,99.99
2018-01-16T12:04:05.642Z,99.99
2018-01-16T12:05:05.637Z,99.99
2018-01-16T12:06:05.366Z,99.99
2018-01-16T12:07:05.613Z,99.99
2018-01-16T12:08:05.621Z,99.99
2018-01-16T12:09:05.352Z,99.99
2018-01-16T12:10:05.608Z,99.99
2018-01-16T12:11:05.596Z,99.99
2018-01-16T12:12:05.338Z,99.99
2018-01-16T12:13:05.593Z,99.99
2018-01-16T12:14:05.588Z,99.99
2018-01-16T12:15:05.333Z,99.99
2018-01-16T12:16:05.583Z,99.99
2018-01-16T12:17:05.314Z,99.99
2018-01-16T12:18:05.557Z,99.99
2018-01-16T12:19:05.581Z,99.99
2018-01-16T12:20:05.298Z,99.99
2018-01-16T12:21:05.291Z,99.99
2018-01-16T12:22:05.539Z,99.99
2018-01-16T12:23:05.534Z,99.99
2018-01-16T12:24:05.537Z,99.99
2018-01-16T12:25:05.274Z,99.99
2018-01-16T12:26:05.519Z,99.99
2018-01-16T12:27:05.265Z,99.99
2018-01-16T12:28:05.510Z,99.99
2018-01-16T12:29:05.555Z,99.99
2018-01-16T12:30:05.502Z,99.99
2018-01-16T12:31:05.500Z,99.99
2018-01-16T12:32:05.489Z,99.99
2018-01-16T12:33:05.487Z,99.99
2018-01-16T12:34:05.481Z,99.99
2018-01-16T12:35:05.481Z,99.99
2018-01-16T12:36:05.215Z,99.99
2018-01-16T12:37:05.217Z,99.99
2018-01-16T12:38:05.207Z,99.99
2018-01-16T12:39:06.197Z,99.99
2018-01-16T12:40:05.204Z,99.99
2018-01-16T12:41:05.444Z,99.99
2018-01-16T12:42:05.181Z,99.99
2018-01-16T12:43:05.190Z,98.93
2018-01-16T12:44:05.430Z,98.36
2018-01-16T12:45:05.426Z,98.83
2018-01-16T12:46:05.410Z,97.03
2018-01-16T12:47:05.423Z,96.08
2018-01-16T12:48:05.399Z,96.84
2018-01-16T12:49:05.390Z,97.5
2018-01-16T12:50:05.397Z,96.26
2018-01-16T12:51:05.127Z,94.18
2018-01-16T12:52:05.375Z,92.08
2018-01-16T12:53:05.375Z,91.71
2018-01-16T12:54:05.105Z,92.13
2018-01-16T12:55:05.359Z,91.09
2018-01-16T12:56:05.356Z,91.19
2018-01-16T12:57:05.084Z,92.61
2018-01-16T12:58:05.080Z,91.94
2018-01-16T12:59:05.078Z,93.08
2018-01-16T13:00:05.327Z,92.61
2018-01-16T13:01:05.067Z,93.27
2018-01-16T13:02:05.307Z,94.03
2018-01-16T13:03:05.047Z,94.79
2018-01-16T13:04:05.296Z,94.6
2018-01-16T13:05:05.287Z,94.23
2018-01-16T13:06:05.282Z,93.08
2018-01-16T13:07:05.273Z,94.13
2018-01-16T13:08:05.269Z,91.04
2018-01-16T13:09:05.010Z,89.61
2018-01-16T13:10:05.254Z,90.66
2018-01-16T13:11:04.997Z,91.09
2018-01-16T13:12:04.989Z,91.52
2018-01-16T13:13:05.236Z,92.94
2018-01-16T13:14:05.236Z,90.37
2018-01-16T13:15:04.974Z,90.23
2018-01-16T13:16:05.217Z,91.56
2018-01-16T13:17:05.218Z,91.28
2018-01-16T13:18:04.968Z,89.47
2018-01-16T13:19:05.195Z,89
2018-01-16T13:20:04.945Z,89.76
2018-01-16T13:21:04.937Z,89.38
2018-01-16T13:22:04.924Z,88.81
2018-01-16T13:23:04.932Z,89.09